createdAt,value
2019-01-29T00:00:30.805Z,2.02
2019-01-29T00:05:33.986Z,2.00
2019-01-29T00:10:37.275Z,2.20
2019-01-29T00:15:40.559Z,1.37
2019-01-29T00:20:43.867Z,1.83
2019-01-29T00:25:47.062Z,2.30
2019-01-29T00:30:50.245Z,1.00
2019-01-29T00:35:53.485Z,1.67
2019-01-29T00:40:56.667Z,1.27
2019-01-29T00:45:59.910Z,1.53
2019-01-29T00:51:04.138Z,0.90
2019-01-29T00:56:07.326Z,1.50
2019-01-29T01:01:10.525Z,1.07
2019-01-29T01:06:13.809Z,1.73
2019-01-29T01:11:17.185Z,0.80
2019-01-29T01:16:20.376Z,2.27
2019-01-29T01:21:23.576Z,2.23
2019-01-29T01:26:26.829Z,0.63
2019-01-29T01:31:29.984Z,1.43
2019-01-29T01:36:33.264Z,1.10
2019-01-29T01:41:36.461Z,1.93
2019-01-29T01:46:39.757Z,2.57
2019-01-29T01:51:42.952Z,0.80
2019-01-29T01:56:46.186Z,1.30
2019-01-29T02:01:49.395Z,1.32
2019-01-29T02:06:52.667Z,1.10
2019-01-29T02:11:55.925Z,0.80
2019-01-29T02:16:59.160Z,0.50
2019-01-29T02:22:02.409Z,0.73
2019-01-29T02:27:05.813Z,1.50
2019-01-29T02:32:08.996Z,1.70
2019-01-29T02:37:12.279Z,1.83
2019-01-29T02:42:15.469Z,1.10
2019-01-29T02:47:18.718Z,1.40
2019-01-29T02:52:21.939Z,1.70
2019-01-29T02:57:25.123Z,1.57
2019-01-29T03:02:28.331Z,1.27
2019-01-29T03:07:31.542Z,1.30
2019-01-29T03:12:34.771Z,1.97
2019-01-29T03:17:37.973Z,1.90
2019-01-29T03:22:41.205Z,1.17
2019-01-29T03:27:44.508Z,1.77
2019-01-29T03:32:47.797Z,1.17
2019-01-29T03:37:51.053Z,1.80
2019-01-29T03:42:54.279Z,1.70
2019-01-29T03:47:57.704Z,1.80
2019-01-29T03:53:01.147Z,1.13
2019-01-29T03:58:04.513Z,1.97
2019-01-29T04:03:07.864Z,2.40
2019-01-29T04:08:11.267Z,2.73
2019-01-29T04:13:14.593Z,1.90
2019-01-29T04:18:18.113Z,2.17
2019-01-29T04:23:21.367Z,1.90
2019-01-29T04:28:24.785Z,2.60
2019-01-29T04:33:28.143Z,1.80
2019-01-29T04:38:31.389Z,1.10
2019-01-29T04:43:34.666Z,2.00
2019-01-29T04:48:37.914Z,0.87
2019-01-29T04:53:41.118Z,1.63
2019-01-29T04:58:44.321Z,1.10
2019-01-29T05:03:47.526Z,2.70
2019-01-29T05:08:50.714Z,2.03
2019-01-29T05:13:53.925Z,2.07
2019-01-29T05:18:57.146Z,1.70
2019-01-29T05:24:06.599Z,1.77
2019-01-29T05:29:03.563Z,2.63
2019-01-29T05:34:06.775Z,2.03
2019-01-29T05:39:10.434Z,1.90
2019-01-29T05:44:14.708Z,1.37
2019-01-29T05:49:17.883Z,2.13
2019-01-29T05:54:21.100Z,3.20
2019-01-29T05:59:25.367Z,2.47
2019-01-29T06:04:28.577Z,2.73
2019-01-29T06:09:31.765Z,2.85
2019-01-29T06:14:34.954Z,2.83
2019-01-29T06:19:38.133Z,1.87
2019-01-29T06:24:41.317Z,2.83
2019-01-29T06:29:44.505Z,3.10
2019-01-29T06:34:47.797Z,1.73
2019-01-29T06:39:51.016Z,2.17
2019-01-29T06:44:54.207Z,2.07
2019-01-29T06:49:57.385Z,2.40
2019-01-29T06:55:00.608Z,2.97
2019-01-29T07:00:04.146Z,2.62
2019-01-29T07:05:07.651Z,2.50
2019-01-29T07:10:11.952Z,2.40
2019-01-29T07:16:24.498Z,2.73
2019-01-29T07:21:27.693Z,1.73
2019-01-29T07:26:30.887Z,2.80
2019-01-29T07:31:34.135Z,2.67
2019-01-29T07:36:37.369Z,2.30
2019-01-29T07:41:40.606Z,2.57
2019-01-29T07:46:43.983Z,3.50
2019-01-29T07:51:47.299Z,2.80
2019-01-29T07:56:50.586Z,2.10
2019-01-29T08:01:53.768Z,2.37
2019-01-29T08:06:56.966Z,2.83
2019-01-29T08:12:00.165Z,3.00
2019-01-29T08:17:03.373Z,3.43
2019-01-29T08:22:06.574Z,2.00
2019-01-29T08:27:09.795Z,1.77
2019-01-29T08:32:12.985Z,2.50
2019-01-29T08:37:16.212Z,1.82
2019-01-29T08:42:19.427Z,2.87
2019-01-29T08:47:22.725Z,2.30
2019-01-29T08:52:26.062Z,2.17
2019-01-29T08:57:29.396Z,2.57
2019-01-29T09:02:32.634Z,3.17
2019-01-29T09:07:35.826Z,2.97
2019-01-29T09:12:39.016Z,2.40
2019-01-29T09:17:42.200Z,2.50
2019-01-29T09:22:45.386Z,3.50
2019-01-29T09:27:48.560Z,3.07
2019-01-29T09:32:51.770Z,2.10
2019-01-29T09:37:54.966Z,2.47
2019-01-29T09:42:58.181Z,2.53
2019-01-29T09:48:01.396Z,3.15
2019-01-29T09:53:04.706Z,3.90
2019-01-29T09:58:07.914Z,2.53
2019-01-29T10:03:11.114Z,1.80
2019-01-29T10:08:14.342Z,2.90
2019-01-29T10:13:17.746Z,2.27
2019-01-29T10:18:20.976Z,1.43
2019-01-29T10:23:24.246Z,1.77
2019-01-29T10:28:27.442Z,2.37
2019-01-29T10:33:30.646Z,2.03
2019-01-29T10:38:33.977Z,1.50
2019-01-29T10:43:37.231Z,1.70
2019-01-29T10:48:40.461Z,2.02
2019-01-29T10:53:43.651Z,1.70
2019-01-29T10:58:46.894Z,1.53
2019-01-29T11:03:50.083Z,1.80
2019-01-29T11:08:53.282Z,1.97
2019-01-29T11:13:56.510Z,2.10
2019-01-29T11:19:03.460Z,2.20
2019-01-29T11:24:03.198Z,2.33
2019-01-29T11:29:06.462Z,2.53
2019-01-29T11:34:09.765Z,1.30
2019-01-29T11:39:12.982Z,2.07
2019-01-29T11:44:16.196Z,1.73
2019-01-29T11:49:19.421Z,1.80
2019-01-29T11:54:22.975Z,1.77
2019-01-29T11:59:26.294Z,1.00
2019-01-29T12:04:29.471Z,1.50
2019-01-29T12:09:32.793Z,1.27
2019-01-29T12:14:36.010Z,1.50
2019-01-29T12:19:39.290Z,1.63
2019-01-29T12:24:42.546Z,2.13
2019-01-29T12:29:45.841Z,1.30
2019-01-29T12:34:49.156Z,1.80
2019-01-29T12:39:52.350Z,2.30
2019-01-29T12:44:55.643Z,2.17
2019-01-29T12:49:59.051Z,1.83
2019-01-29T12:55:02.334Z,1.37
2019-01-29T13:00:07.185Z,1.63
2019-01-29T13:05:11.417Z,1.77
2019-01-29T13:10:17.694Z,1.15
2019-01-29T13:15:23.266Z,0.90
2019-01-29T13:20:26.552Z,0.60
2019-01-29T13:25:30.003Z,0.70
2019-01-29T13:30:34.648Z,0.80
2019-01-29T13:35:38.024Z,0.80
2019-01-29T13:40:41.442Z,1.50
2019-01-29T13:45:44.811Z,1.20
2019-01-29T13:50:53.671Z,0.50
2019-01-29T13:55:56.988Z,1.20
2019-01-29T14:01:00.344Z,2.00
2019-01-29T14:06:03.644Z,1.47
2019-01-29T14:11:07.057Z,0.73
2019-01-29T14:16:12.915Z,10.17
2019-01-29T14:21:16.303Z,13.07
2019-01-29T14:26:19.687Z,3.53
2019-01-29T14:31:23.123Z,3.90
2019-01-29T14:36:26.865Z,3.27
2019-01-29T14:41:30.303Z,2.67
2019-01-29T14:46:33.743Z,1.47
2019-01-29T14:51:37.170Z,1.50
2019-01-29T14:56:40.462Z,1.42
2019-01-29T15:01:44.019Z,3.00
2019-01-29T15:06:47.073Z,4.50
2019-01-29T15:11:50.373Z,4.67
2019-01-29T15:16:58.782Z,3.80
2019-01-29T15:22:02.131Z,3.97
2019-01-29T15:27:06.107Z,4.23
2019-01-29T15:32:08.998Z,5.23
2019-01-29T15:37:12.357Z,8.73
2019-01-29T15:42:15.789Z,28.30
2019-01-29T15:47:19.095Z,12.17
2019-01-29T15:52:22.422Z,10.23
2019-01-29T15:57:25.770Z,2.93
2019-01-29T16:02:29.058Z,4.70
2019-01-29T16:07:32.419Z,3.47
2019-01-29T16:12:35.839Z,3.65
2019-01-29T16:17:39.182Z,4.20
2019-01-29T16:22:42.682Z,4.30
2019-01-29T16:27:46.157Z,3.50
2019-01-29T16:32:49.643Z,3.43
2019-01-29T16:37:53.114Z,3.27
2019-01-29T16:42:56.741Z,3.20
2019-01-29T16:48:00.152Z,4.90
2019-01-29T16:53:03.692Z,5.13
2019-01-29T16:58:07.221Z,4.63
2019-01-29T17:03:10.586Z,3.27
2019-01-29T17:08:13.962Z,3.97
2019-01-29T17:13:17.400Z,4.33
2019-01-29T17:18:20.864Z,4.67
2019-01-29T17:23:24.313Z,3.70
2019-01-29T17:28:27.720Z,2.60
2019-01-29T17:33:31.158Z,3.10
2019-01-29T17:38:34.623Z,2.90
2019-01-29T17:43:38.102Z,4.03
2019-01-29T17:48:41.597Z,3.67
2019-01-29T17:53:45.021Z,4.63
2019-01-29T17:58:48.430Z,3.43
2019-01-29T18:03:51.913Z,5.12
2019-01-29T18:08:55.426Z,4.47
2019-01-29T18:13:58.916Z,4.90
2019-01-29T18:19:02.340Z,4.60
2019-01-29T18:24:05.829Z,3.17
2019-01-29T18:29:09.280Z,3.47
2019-01-29T18:34:12.766Z,3.60
2019-01-29T18:39:16.177Z,3.80
2019-01-29T18:44:19.651Z,4.07
2019-01-29T18:49:23.101Z,2.80
2019-01-29T18:54:26.442Z,4.87
2019-01-29T18:59:29.937Z,4.73
2019-01-29T19:04:33.431Z,4.30
2019-01-29T19:09:36.830Z,2.97
2019-01-29T19:14:40.227Z,2.40
2019-01-29T19:19:43.535Z,3.07
2019-01-29T19:24:46.885Z,3.90
2019-01-29T19:29:50.290Z,3.50
2019-01-29T19:34:53.693Z,4.03
2019-01-29T19:39:57.025Z,4.27
2019-01-29T19:45:00.386Z,3.40
2019-01-29T19:50:04.232Z,2.90
2019-01-29T19:55:07.582Z,3.17
2019-01-29T20:00:15.736Z,3.37
2019-01-29T20:05:19.096Z,3.63
2019-01-29T20:10:22.549Z,2.17
2019-01-29T20:15:26.003Z,2.60
2019-01-29T20:20:32.612Z,2.42
2019-01-29T20:25:35.989Z,2.73
2019-01-29T20:30:39.866Z,3.33
2019-01-29T20:35:43.294Z,3.23
2019-01-29T20:40:46.680Z,2.13
2019-01-29T20:45:50.017Z,2.07
2019-01-29T20:50:53.415Z,1.95
2019-01-29T20:55:56.778Z,3.03
2019-01-29T21:01:00.061Z,1.93
2019-01-29T21:06:03.459Z,3.57
2019-01-29T21:11:06.779Z,1.80
2019-01-29T21:16:10.130Z,2.33
2019-01-29T21:21:13.595Z,2.03
2019-01-29T21:26:16.993Z,2.07
2019-01-29T21:31:20.285Z,3.07
2019-01-29T21:36:23.606Z,2.50
2019-01-29T21:41:26.902Z,3.13
2019-01-29T21:46:30.193Z,3.37
2019-01-29T21:51:33.434Z,2.33
2019-01-29T21:56:36.645Z,2.20
2019-01-29T22:01:39.955Z,2.50
2019-01-29T22:06:43.205Z,3.77
2019-01-29T22:11:46.449Z,3.62
2019-01-29T22:16:49.694Z,3.10
2019-01-29T22:21:52.903Z,2.93
2019-01-29T22:26:56.202Z,1.37
2019-01-29T22:31:59.392Z,1.60
2019-01-29T22:37:02.590Z,3.67
2019-01-29T22:42:05.770Z,3.58
2019-01-29T22:47:09.021Z,3.73
2019-01-29T22:52:12.222Z,2.60
2019-01-29T22:57:15.606Z,2.20
2019-01-29T23:02:18.734Z,2.97
2019-01-29T23:07:25.883Z,2.90
2019-01-29T23:12:29.152Z,3.83
2019-01-29T23:17:32.362Z,3.75
2019-01-29T23:22:35.697Z,2.37
2019-01-29T23:27:38.887Z,3.87
2019-01-29T23:32:42.068Z,2.80
2019-01-29T23:37:45.298Z,3.00
2019-01-29T23:42:48.488Z,3.47
2019-01-29T23:47:55.961Z,2.93
2019-01-29T23:52:59.177Z,2.03
2019-01-29T23:58:02.483Z,2.33
